Extreme weather reports worldwide

Rain

Station
 
Location
 
Name
 
Wind
Knots
Gust
Knots
Vis
SM
Temp/Dew
C
Baro
inHg
METAR
 
FMN KFMN Farmington, US Four Corners Regional Airport 18 33 10 22/14 30.19 KFMN 080053Z 09018G33KT 10SM -RA FEW075 BKN100 BKN120 23/14 A3019 RMK AO2 PK WND 12033/0046 LTG DSNT SW TSE12 SLP168 P0002 T02280144
PLZ FAPE Port Elizabeth, ZA Port Elizabeth Airport 20 31 3.73 14/14 30.00 FAPE 080054Z 24020G31KT 6000 RA FEW007 SCT024 OVC028 14/14 Q1016 NOSIG
PTU PAPM Platinum, US Platinum Airport 24 30 1.5 10/10 29.90 PAPM 080056Z AUTO 23024G30KT 1 1/2SM -RA BR OVC004 11/10 A2990 RMK AO2 PK WND 23030/0051 SLP127 P0000 T01060100
KNJW Meridian, US Joe Williams Nolf Airport 22 30 10 25/22 30.20 KNJW 080057Z AUTO 31022G30KT 10SM -TSRA SCT017 BKN055 OVC090 25/22 A3020 RMK AO2 PK WND 31030/0055 WSHFT 0043 RAB18E28B51 TSB17 SLP140 P0000 T02500222 $
KJHN 19 30 5 26/15 30.06 KJHN 080055Z AUTO 06019G30KT 5SM VCTSRA SCT021 BKN055 OVC110 26/16 A3006 RMK AO2 LTG DSNT ALQS T02620156

Station
 
Location
 
Name
 
Wind
Knots
Gust
Knots
Vis
SM
Temp/Dew
C
Baro
inHg
METAR
 
SKK PFSH Shaktoolik, US Shaktoolik Airport 25 28 7 11/10 29.38 PFSH 080056Z AUTO 20025G28KT 7SM -RA SCT006 BKN010 OVC017 11/10 A2938 RMK AO2 PK WND 20028/0056 SLP950 P0000 T01110100
OTZ PAOT Kotzebue, US Ralph Wien Memorial Airport 22 28 10 8/6 29.49 PAOT 080053Z 11022G28KT 10SM -RA SCT022 BKN028 OVC044 08/07 A2949 RMK AO2 PK WND 10029/0022 SLP986 P0001 T00830067 $
MCG PAMC McGrath, US McGrath Airport 18 28 4 9/7 29.67 PAMC 080053Z 19018G28KT 4SM -RA BR OVC017 09/07 A2967 RMK AO2 PK WND 19030/0021 SLP051 P0001 T00940072
SAL MSLP San Salvador (San Luis Talpa), SV Monseñor Óscar Arnulfo Romero International Airport 17 28 3.11 24/22 29.85 MSLP 080053Z 08017G28KT 5000 TSRA FEW013 SCT020 BKN033CB BKN043 24/22 Q1011 TEMPO 3000 +TSRA
KULS Ulysses, US Ulysses Airport 9 28 5 28/18 30.00 KULS 080050Z AUTO 04009G28KT 5SM -RA SCT001 SCT005 SCT013 28/18 A3000 RMK AO2 LTG DSNT NW THRU E
KWN PAQH Quinhagak, US Quinhagak Airport 20 27 1.75 10/10 29.85 PAQH 080056Z AUTO 20020G27KT 1 3/4SM -RA BR BKN007 OVC010 11/10 A2985 RMK AO2 PK WND 21028/0025 CIG 004V008 SLP107 P0001 T01060100
EDF PAED Anchorage, US Elmendorf Air Force Base 21 26 10 12/6 29.91 PAED 080056Z 19021G26KT 10SM -RA SCT045 BKN065 OVC100 13/07 A2991 RMK AO2A PK WND 20044/12 SLP125 P0000 T01250068 FZRANO $
YWK CYWK Wabush, CA Wabush Airport 14 26 15 10/8 29.80 CYWK 080000Z 29014G26KT 15SM -SHRA BKN019 BKN026 10/08 A2980 RMK CU6SC1 SLP105
WSN PFWS South Naknek, US South Naknek Nr 2 Airport 21 25 1.5 11/10 30.01 PFWS 080056Z AUTO 23021G25KT 1 1/2SM -RA BR OVC006 11/11 A3001 RMK AO2 PK WND 23028/0028 RAE01B56 SLP204 P0000 T01110106
YEK CYEK Arviat, CA Arviat Airport 20 25 3 10/10 29.63 CYEK 080025Z AUTO 10020G25KT 3SM RA BR BKN014 OVC024 10/10 A2963 RMK PCPN 3.0MM PAST HR SLP037
YQH CYQH Watson Lake, CA Watson Lake Airport 20 25 30 14/7 29.90 CYQH 080047Z 28020G25KT 30SM -SHRA BKN060 OVC075 14/07 A2990 RMK CU5AC3 SLP138 DENSITY ALT 2700FT
MRI PAMR Anchorage, US Merrill Field 16 25 10 13/6 29.92 PAMR 080053Z 20016G25KT 10SM -RA BKN065 OVC085 13/06 A2992 RMK AO2 PK WND 21032/0031 RAB13 SLP132 P0000 T01330061 $
CLP PFCL Clarks Point, US Clarks Point Airport 18 24 3 11/11 29.96 PFCL 080027Z AUTO 23018G24KT 3SM -RA BR OVC005 11/11 A2996 RMK AO2 PK WND 23026/2358 P0000 TSNO
DSM KDSM Des Moines, US Des Moines International Airport 17 24 7 26/23 29.93 KDSM 080054Z 26017G24KT 7SM -TSRA FEW030 SCT044CB BKN090 OVC250 26/24 A2993 RMK AO2 PK WND 32037/0002 WSHFT 2358 LTG DSNT ALQDS RAB00 SLP124 OCNL LTGICCG S-W / DSNT W TS S-W / CB DSNT W MOV E P0068 T02610239
KWT PFKW Kwethluk, US Kwethluk Airport 16 24 10 11/10 29.72 PFKW 080056Z AUTO 22016G24KT 10SM -RA OVC008 12/11 A2972 RMK AO2 PK WND 22026/0039 SLP062 P0000 T01170106
BQB YBLN AU Busselton Regional Airport 14 24 4.35 11/11 29.82 YBLN 080105Z AUTO 27014G24KT 7000 SHRA SCT011 SCT023 BKN033 11/11 Q1010 RETS
ALS KALS Alamosa, US San Luis Valley Regional Bergman Field 15 23 5 17/11 30.34 KALS 080052Z AUTO 12015G23KT 5SM -RA FEW015 BKN044 OVC085 17/12 A3034 RMK AO2 PK WND 08029/0037 LTG DSNT NE-SE TSB27E42 SLP194 P0002 T01720117
SOV PASO Seldovia, US Seldovia Airport 13 23 9 12/7 30.00 PASO 080053Z AUTO 20013G23KT 9SM -RA BKN055 OVC085 12/08 A3000 RMK AO2 RAB04 SLP159 P0000 T01220078 TSNO
HMY RKTP Seosan, KR Seosan Air Base 13 23 6.21 28/26 29.74 RKTP 072353Z 20013G023KT 9999 -RA FEW010 BKN014 OVC020 28/26 A2974 RMK CIG014
ORV PFNO Noorvik, US Robert (Bob) Curtis Memorial Airport 19 22 10 8/5 29.54 PFNO 080056Z AUTO 10019G22KT 10SM -RA OVC033 08/06 A2954 RMK AO2 SLP084 P0000 T00830056
FRN PAFR Fort Richardson(Anchorage), US Bryant Army Heliport 16 22 9 15/6 29.86 PAFR 072356Z AUTO 22016G22KT 9SM -RA FEW034 BKN060 BKN075 OVC095 15/07 A2986 RMK AO2 RAB46 SLP118 P0000 60000 T01500068 10157 20138 57007 VISNO RWY35 CHINO RWY35 $
BKC PABL Buckland, US Buckland Airport 14 22 10 9/6 29.48 PABL 080056Z AUTO 12014G22KT 10SM -RA FEW017 OVC035 09/07 A2948 RMK AO2 RAE07B33 SLP983 P0000 T00940067
RKSV Pyoripsan, KR Pyoripsan Heliport 7 22 25/25 29.77 RKSV 080007Z 19007G022KT 000 -RA FG VV001 25/25 A2977 RMK CIG001
WLK PASK Selawik, US Selawik Airport 14 21 10 8/7 29.55 PASK 080056Z AUTO 10014G21KT 10SM -RA SCT030 OVC035 09/07 A2955 RMK AO2 SLP005 T00890072 PNO $
RKSQ Yeonpyeong-myeon, KR Yeonpyeong-Myeon Heliport 9 21 0.99 27/26 29.71 RKSQ 080030Z 21009G021KT 1600 -TSRA BR BKN002 FEW012CB OVC015 27/26 A2971 RMK CIG002 OCNL LTG CC TS B30 NW
SHX PAHX Shageluk, US Shageluk Airport 14 20 10 12/10 29.56 PAHX 080102Z AUTO 22014G20KT 10SM -RA BKN016 BKN024 OVC038 13/11 A2956 RMK AO2 RAB0051 SLP010 P0000 T01280106
ANC PANC Anchorage, US Ted Stevens Anchorage International Airport 11 20 10 12/7 29.91 PANC 080053Z 20011G20KT 10SM -RA SCT047 BKN060 OVC190 12/07 A2991 RMK AO2 PK WND 19031/0023 RAB2359 SLP130 P0000 T01220072
ANI PANI Aniak, US Aniak Airport 15 19 8 11/10 29.72 PANI 080056Z AUTO 23015G19KT 8SM -RA 12/11 A2972 RMK AO2 RAB2357 SLP057 P0000 T01170106 $
YSB CYSB Sudbury, CA Sudbury Airport 13 19 4 14/13 30.04 CYSB 080000Z 05013G19KT 4SM -RA BR BKN010 OVC040 14/13 A3004 RMK ST6SC2 SLP179 DENSITY ALT 1200FT
KCFE Buffalo, US Buffalo Municipal Airport 13 19 7 20/18 30.01 KCFE 080055Z AUTO 33013G19KT 7SM -RA SCT020 SCT025 OVC040 20/18 A3001 RMK AO2 LTG DSNT N AND NW
RBY PARY Ruby, US Ruby Airport 10 19 10 7/5 29.61 PARY 080056Z AUTO 12010G19KT 10SM -RA FEW010 BKN013 OVC020 07/06 A2961 RMK AO2 SLP038 P0001 T00720056
FTY KFTY Atlanta, US Fulton County Airport Brown Field 9 19 10 24/20 30.16 KFTY 080053Z 13009G19KT 10SM -TSRA FEW007 SCT045 BKN055 24/21 A3016 RMK AO2 PK WND 14036/0037 WSHFT 0030 LTG DSNT S-W RAB24 TSB13 SLP204 T02440206 PNO $
KBRG 9 19 3 27/12 30.18 KBRG 080055Z AUTO 05009G19KT 3SM +VCTSRA SCT028 BKN100 OVC110 28/12 A3018 RMK AO2 LTG DSNT N NE AND S P0006 T02750121
PABV Birchwood, US Birchwood Airport 13 18 10 13/7 29.93 PABV 080056Z AUTO 20013G18KT 10SM -RA OVC048 13/08 A2993 RMK AO2 SLP142 P0002 T01330078
KGYL Glencoe, US Glencoe Municipal Airport 13 18 4 19/18 30.00 KGYL 080055Z AUTO 31013G18KT 4SM +RA OVC024 20/18 A3000 RMK AO2 T01980180 P0007
NSL KDVP Slayton, US Slayton Municipal Airport 12 18 2.5 17/17 30.06 KDVP 080053Z AUTO 34012G18KT 2 1/2SM RA BKN006 OVC011 18/17 A3006 RMK AO2 T01750170 P0002
SVW PASV Sparrevohn, US Sparrevohn LRRS Airport 10 18 10 7/6 29.82 PASV 080055Z AUTO 18010G18KT 10SM -RA OVC007 07/06 A2982 RMK AO2 RAB2255 SLP107 P0006 T00700064 $
KHCD Hutchinson, US Hutchinson Municipal Butler Field 13 17 5 19/18 30.03 KHCD 080055Z AUTO 35013G17KT 5SM -RA SCT016 BKN050 OVC070 19/19 A3003 RMK AO2 T01920187 P0011
WWA PAWS Wasilla, US Wasilla Airport 8 17 10 12/6 29.94 PAWS 080056Z AUTO 20008G17KT 180V260 10SM -RA FEW014 OVC047 13/06 A2994 RMK AO2 SLP143 P0000 T01280061
IAN PAIK Kiana, US Bob Baker Memorial Airport 11 16 10 8/5 29.58 PAIK 080056Z AUTO 10011G16KT 10SM -RA BKN033 OVC041 08/05 A2958 RMK AO2 RAB2358 SLP018 P0001 T00830050
YQX CYQX Gander, CA Gander International Airport 8 16 20 22/19 29.72 CYQX 080045Z 25008G16KT 190V280 20SM -RA SCT030 BKN063 22/19 A2972 RMK SC3SC5 SLP067 DENSITY ALT 1700FT
KTKC Tracy, US Tracy Municipal Airport 11 15 7 18/16 30.04 KTKC 080055Z AUTO 34011G15KT 7SM RA BKN006 BKN009 OVC034 19/17 A3004 RMK AO2 T01850169 P0002
KQD3 9 15 6.21 29/22 29.63 KQD3 080056Z AUTO 26009G15KT 9999 -RA FEW100 OVC140 30/23 A2963 RMK AO2 LTG DSNT NW RAB51 SLP018 WND DATA ESTMD T02950229
YND CYND Gatineau, CA Ottawa / Gatineau Airport 6 15 10 22/21 29.97 CYND 080032Z 36006G15KT 10SM -SHRA SCT019 OVC032 22/21 A2997 RMK CU4SC4 SLP151 DENSITY ALT 1100FT
WLG NZWN Wellington, NZ Wellington International Airport 31 3.11 8/7 30.00 NZWN 080030Z AUTO 17031KT 5000 -RA HZ BKN016/// BKN022/// 08/07 Q1016 BECMG 7000 TEMPO 4000 RA